Listado único de aspirantes (Periodo de valoración 31 octubre de 2016)


* Listado ordenado por el total Autobaremo. Recuerde que también puede ordenarlo por Apellidos, Nombre

Listado único de aspirantes admitidos en turno libre en la bolsa de selección de personal estatutario temporal, categoría: Enfermera-Area de Neonatología
Apellidos, Nombre Exp. SAS Auto. Exp. NO SAS Auto. Form. Auto. otros méritos Total Auto. Exp. SAS Baremo Exp. NO SAS Baremo Form. Baremo Otros méritos Punt. Total Baremo Fecha Act.
ROMERO FONTALBA, CARMEN VANESA 38,700 0,000 39,000 3,325 81,025 38,700 0,000 36,000 1,275 75,975 13/06/2017
VAZQUEZ GONGORA, ISABEL MARIA 6,000 30,200 39,000 5,775 80,975 6,000 28,100 39,000 4,750 77,850 13/06/2017
MONTIEL CRESPO, PATRICIA 37,200 0,000 36,000 7,700 80,900 37,200 0,000 36,000 6,600 79,800 13/06/2017
PINO MORENO, SONIA 42,000 0,000 36,000 2,900 80,900 42,000 0,000 36,000 2,000 80,000 13/06/2017
GOMEZ PEREZ, ANA MARIA 44,850 0,000 36,000 0,000 80,850 44,850 0,000 36,000 0,000 80,850 13/06/2017
RODRÍGUEZ SAUCEDO, VIRGINIA 37,500 6,300 36,000 1,025 80,825 37,500 6,300 36,000 1,025 80,825 13/06/2017
CORRAL SALVADOR, CRISTINA 21,900 20,100 36,000 2,800 80,800 21,900 14,400 36,000 2,500 74,800 13/06/2017
MARTOS AGUILERA, ANA MARIA 28,200 6,300 36,000 10,300 80,800 28,200 6,300 36,000 0,000 70,500 13/06/2017
OLIVA GÓMEZ, VIRGINIA 16,500 25,800 36,000 2,450 80,750 16,500 25,800 36,000 2,300 80,600 13/06/2017
RODRIGUEZ ELORZA, GUADALUPE 0,600 46,800 33,000 0,350 80,750 0,600 46,800 33,000 0,300 80,700 13/06/2017
SÁNCHEZ MAYORGA, YOLANDA 38,100 1,200 39,000 2,450 80,750 38,100 1,200 39,000 1,500 79,800 13/06/2017
VALLADARES MONSALVES, Mª JOSE 38,100 1,600 39,000 2,000 80,700 38,100 1,600 39,000 2,000 80,700 13/06/2017
GUARNIDO PETERS, MARINA 3,900 39,400 35,000 2,300 80,600 3,900 37,800 35,000 2,000 78,700 13/06/2017
MUÑOZ GUERRERO, DAVID 0,000 45,300 33,000 2,225 80,525 0,000 45,300 33,000 2,225 80,525 13/06/2017
SANTOS GÓMEZ, Mª DOLORES 43,200 0,300 37,000 0,000 80,500 43,200 0,300 37,000 0,000 80,500 13/06/2017
GUTIERREZ FERNANDEZ, TANIA 0,300 46,500 33,000 0,625 80,425 0,300 24,900 18,725 0,175 44,100 13/06/2017
BERNAL BONACHERA, MARIA LUISA 44,400 0,000 36,000 0,000 80,400 44,400 0,000 36,000 0,000 80,400 13/06/2017
MOLINA CERVILLA, ALFREDO 0,300 38,100 42,000 0,000 80,400 0,300 36,300 42,000 0,000 78,600 13/06/2017
SERRANO GARCIA, GLORIA 42,600 1,800 36,000 0,000 80,400 42,600 1,800 36,000 0,000 80,400 13/06/2017
LOZANO MARTINEZ, FCO. JAVIER 26,050 0,500 36,000 17,650 80,200 26,050 0,000 36,000 15,250 77,550 13/06/2017
MORENO ROMERO, Mª ELENA 43,200 0,000 36,000 1,000 80,200 43,200 0,000 36,000 1,000 80,200 13/06/2017
RIOS BERMUDEZ, RAQUEL 49,200 0,000 30,000 1,000 80,200 49,200 0,000 30,000 1,000 80,200 13/06/2017
VALLECILLO CASTELLANO, ELISABET 44,100 0,000 36,000 0,100 80,200 44,100 0,000 36,000 0,100 80,200 13/06/2017
NAVAS TORREGROSA, ALICIA 39,000 3,150 36,000 2,000 80,150 39,000 3,150 36,000 2,000 80,150 13/06/2017
MARTEL DÍAZ, ANA MARÍA 2,700 37,300 39,000 1,125 80,125 2,700 34,900 39,000 1,125 77,725 13/06/2017
VIDAL GOMEZ, CARMEN 46,200 0,900 33,000 0,000 80,100 46,200 0,900 33,000 0,000 80,100 13/06/2017
MORENO SORIANO, LOURDES 26,700 14,400 36,000 2,950 80,050 26,700 14,400 36,000 2,000 79,100 13/06/2017
GARCIA-BLANCA RODRIGUEZ, JULIA 27,300 9,600 36,000 7,000 79,900 27,300 9,600 36,000 0,000 72,900 13/06/2017
MANCHON MATEOS, ALICIA 36,600 0,600 36,000 6,700 79,900 36,600 0,600 36,000 4,600 77,800 13/06/2017
AYUDARTE ROMERO, VANESA 38,100 3,600 36,000 2,150 79,850 38,100 0,600 36,000 2,150 76,850 13/06/2017
NOTARIO BRAULIO, M. DEL PILAR 38,100 3,400 36,000 2,350 79,850 38,100 3,400 36,000 2,300 79,800 13/06/2017
GALINDO DOCTOR, Mª CARMEN 39,300 0,000 39,000 1,375 79,675 39,300 0,000 39,000 0,775 79,075 13/06/2017
MARIN RUIZ, YOLANDA 42,600 0,000 36,000 1,000 79,600 42,600 0,000 36,000 1,000 79,600 13/06/2017
RUEDA RUEDA, MARIA DOLORES 6,900 36,300 36,000 0,400 79,600 6,900 9,800 36,000 0,100 52,800 13/06/2017
ZAMORANO BONILLA, LUIS DAVID 36,650 4,050 36,000 2,900 79,600 36,650 4,050 36,000 2,300 79,000 13/06/2017
ALONSO PARDO, ADELA 31,800 12,700 35,000 0,000 79,500 31,800 12,700 32,000 0,000 76,500 13/06/2017
CARO MALDONADO, ESTHER 0,000 46,500 33,000 0,000 79,500 0,000 46,200 33,000 0,000 79,200 13/06/2017
LOPEZ ROMERO, Mª ANGELES 32,100 5,400 39,000 3,000 79,500 32,100 5,400 39,000 0,000 76,500 13/06/2017
CASARES PEREZ, AMELIA 36,400 6,300 36,000 0,700 79,400 36,400 6,300 36,000 0,700 79,400 13/06/2017
GARCÍA SORIANO, ANTONIO JESÚS 32,700 5,700 39,000 2,000 79,400 32,700 5,700 39,000 1,000 78,400 13/06/2017
PUEYO URROZ, DAVID 46,200 1,200 32,000 0,000 79,400 46,200 1,200 32,000 0,000 79,400 13/06/2017
ZARA RIVERA, PATRICIA 22,500 11,400 36,000 9,500 79,400 22,500 11,400 36,000 6,200 76,100 13/06/2017
GARCIA BAEZ, MARIA JOSE 40,500 0,000 36,000 2,850 79,350 40,500 0,000 36,000 2,850 79,350 13/06/2017
CANTERO RUIZ, MANUELA 0,000 45,300 33,000 1,000 79,300 0,000 24,000 30,000 1,000 55,000 13/06/2017
GARCÍA GARCÍA-RINCÓN, ARÁNZAZU 33,000 9,300 36,000 1,000 79,300 33,000 8,700 36,000 1,000 78,700 13/06/2017
JABARES RODRIGUEZ, ROSA 42,300 0,000 36,000 1,000 79,300 42,300 0,000 36,000 1,000 79,300 13/06/2017
LLORENTE MORENTE, M. TERESA 44,700 0,600 34,000 0,000 79,300 44,700 0,600 34,000 0,000 79,300 13/06/2017
MATARIN MATARIN, Mª CRISTINA 36,400 3,000 36,000 3,900 79,300 36,400 3,000 36,000 3,900 79,300 13/06/2017
LOBERO GURRIARAN, VERONICA 7,800 31,500 36,000 3,975 79,275 7,800 29,400 36,000 0,375 73,575 13/06/2017
CARRASCO SALINAS, CRISTINA 29,700 11,300 36,000 2,250 79,250 29,700 11,300 36,000 1,350 78,350 13/06/2017
ALARCON JIMENEZ, FRANCISCO JOSE 39,600 2,400 36,000 1,100 79,100 39,600 1,650 36,000 1,050 78,300 13/06/2017
VICENTE CASTILLO, VANESA 18,600 20,800 36,000 3,700 79,100 18,600 20,800 36,000 3,400 78,800 13/06/2017
PRIETO SANCHEZ, PILAR 48,900 0,000 30,000 0,150 79,050 48,900 0,000 30,000 0,100 79,000 13/06/2017
GARCIA GARCIA, MARGARITA 35,700 0,000 39,000 4,300 79,000 35,700 0,000 39,000 4,300 79,000 13/06/2017
TORRES ALBA, LUCIA 0,000 42,000 36,000 1,000 79,000 0,000 41,400 33,000 1,000 75,400 13/06/2017
GARCIA ZAMORA, ANTONIO 39,900 0,000 39,000 0,000 78,900 39,900 0,000 39,000 0,000 78,900 13/06/2017
LOPEZ MARTINEZ, MARIA ASUNCION 48,000 0,900 30,000 0,000 78,900 48,000 0,900 30,000 0,000 78,900 13/06/2017
LOZANO CASTAÑO, FRANCISCO JESÚS 37,200 0,000 36,000 5,700 78,900 37,200 0,000 36,000 4,500 77,700 13/06/2017
POZO REINA, MARIA ELENA 21,600 16,200 36,000 5,000 78,800 21,600 16,200 36,000 3,200 77,000 13/06/2017
LARA RAMIREZ, NATIVIDAD 6,000 37,500 34,000 1,200 78,700 6,000 37,200 34,000 1,100 78,300 13/06/2017
AGUILERA DOBLAS, MARIA DEL CARMEN 37,200 2,100 38,000 1,300 78,600 37,200 2,100 38,000 0,100 77,400 13/06/2017
ROBLES LOZANO, Mª DEL ROCÍO 42,600 0,000 36,000 0,000 78,600 42,600 0,000 36,000 0,000 78,600 13/06/2017
RUIZ CAMPOS, MARIA DEL ROSEL 15,900 23,600 39,000 0,025 78,525 15,900 23,300 39,000 0,000 78,200 13/06/2017
DORADO SANCHEZ, ROCIO 35,700 1,800 39,000 2,000 78,500 35,700 1,800 36,000 2,000 75,500 13/06/2017
LUACES ATIENZA, EVA MARÍA 38,400 2,100 36,000 2,000 78,500 38,400 2,100 36,000 2,000 78,500 13/06/2017
RINCON CALDERON, YOLANDA EVA 41,100 1,200 36,000 0,200 78,500 41,100 1,200 36,000 0,200 78,500 13/06/2017
ROMERO ORTEGA, CARLOS 36,600 1,900 39,000 1,000 78,500 36,600 1,900 39,000 1,000 78,500 13/06/2017
ANGUITA CARPIO, CRISTINA 4,500 20,100 36,000 17,875 78,475 4,500 20,100 36,000 7,975 68,575 13/06/2017
JIMENEZ MOLINA, MARIA DEL MAR 28,200 0,000 37,000 13,250 78,450 28,200 0,000 37,000 10,000 75,200 13/06/2017
PEDRAZA GUTIERREZ, INMACULADA 32,700 9,750 36,000 0,000 78,450 32,700 9,750 36,000 0,000 78,450 13/06/2017
SEGURA GALLARDO, CARMEN 41,400 0,000 36,000 1,000 78,400 41,400 0,000 36,000 1,000 78,400 13/06/2017
CRUCES PERNIA, MARIA JOSE 39,300 0,000 39,000 0,000 78,300 39,300 0,000 39,000 0,000 78,300 13/06/2017
DOÑA GARCIA, MARIA DE LOS REMEDIO 42,300 0,000 34,000 2,000 78,300 42,300 0,000 34,000 2,000 78,300 13/06/2017
MELERO PÁEZ, MÓNICA 33,000 6,300 39,000 0,000 78,300 33,000 6,300 39,000 0,000 78,300 13/06/2017
CASTILLO PASCUAL, ESTHER MARÍA 38,100 2,100 36,000 2,000 78,200 38,100 2,100 36,000 2,000 78,200 13/06/2017
DÍAZ CEBALLOS, I.DESIRÉE 41,100 0,500 36,000 0,600 78,200 41,100 0,000 36,000 0,600 77,700 13/06/2017
PEREZ DE LA LASTRA MUÑOZ, DOLORES 41,150 0,000 36,000 1,000 78,150 41,150 0,000 36,000 1,000 78,150 13/06/2017
TORRALBO ARANDA, ENCARNACION 29,700 4,900 39,000 4,525 78,125 29,700 4,900 36,000 4,375 74,975 13/06/2017
LÓPEZ ORTIZ, ISABEL 0,600 39,000 36,000 2,500 78,100 0,600 36,600 36,000 2,000 75,200 13/06/2017
MARISCAL MUÑOZ, VIRGINIA 39,900 4,200 32,000 2,000 78,100 39,900 4,200 32,000 2,000 78,100 13/06/2017
VELA CARRILLO, MARIA DEL MAR 37,500 4,500 36,000 0,000 78,000 37,500 2,700 36,000 0,000 76,200 13/06/2017
ALFEREZ REPISO, ELENA 40,500 1,200 36,000 0,200 77,900 40,500 1,200 36,000 0,200 77,900 13/06/2017
GARCÍA ALEMÁN, LETICIA 3,300 18,600 36,000 20,000 77,900 3,300 18,600 35,000 1,300 58,200 13/06/2017
ARJONA BARCIA, FRANCISCO JAVIER 39,000 0,000 36,000 2,850 77,850 39,000 0,000 36,000 2,850 77,850 13/06/2017
GARCIA TEJERO, MIRIAM 13,500 28,200 34,000 2,100 77,800 13,500 28,200 34,000 1,000 76,700 13/06/2017
MACHADO MIRAS, ANA MARIA 0,000 43,800 33,000 1,000 77,800 0,000 30,000 33,000 1,000 64,000 13/06/2017
CID PÉREZ, ELENA CRISTINA 36,900 1,100 39,000 0,750 77,750 36,900 1,100 39,000 0,150 77,150 13/06/2017
SEGURA GONZALVEZ, SUSANA 13,200 24,550 39,000 1,000 77,750 13,200 24,450 36,000 1,000 74,650 13/06/2017
CASTAÑO SEDANO, MARÍA 0,300 44,400 33,000 0,000 77,700 0,300 44,400 33,000 0,000 77,700 13/06/2017
SANCHEZ CARVAJAL, MARINA 30,000 8,700 39,000 0,000 77,700 30,000 8,700 36,000 0,000 74,700 13/06/2017
TIRADO CABALLERO, AURORA 43,700 0,000 34,000 0,000 77,700 43,700 0,000 34,000 0,000 77,700 13/06/2017
JÁNDULA LLAVERO, LUIS JESUS 14,100 7,500 36,000 20,000 77,600 14,100 0,600 36,000 0,700 51,400 13/06/2017
RECIO DAMÍN, FRANCISCO JAVIER 5,700 35,400 36,000 0,500 77,600 5,700 34,200 32,000 0,200 72,100 13/06/2017
MORENO ROMERO, YOLANDA 32,100 9,300 36,000 0,175 77,575 32,100 0,000 36,000 0,175 68,275 13/06/2017
CORREDERAS ROMERO, MARÍA JOSÉ 40,500 0,000 36,000 1,050 77,550 40,500 0,000 36,000 1,050 77,550 13/06/2017
CHAMORRO MUÑOZ, Mª ROCIO 25,850 14,650 36,000 1,000 77,500 25,850 9,700 36,000 1,000 72,550 13/06/2017
IBAÑEZ IBAÑEZ, ALBERTO 0,600 37,700 36,000 3,200 77,500 0,600 37,500 36,000 1,200 75,300 13/06/2017
MORENO MORENO, MILAGROSA 21,300 15,000 38,100 3,000 77,400 21,300 15,000 32,100 1,000 69,400 13/06/2017
ZAPATA TATJE, MARIA COVADONGA 14,100 25,800 36,000 1,500 77,400 14,100 25,800 36,000 1,500 77,400 13/06/2017
ARTEAGA VALVERDE, MARIA ISABEL 39,900 0,000 36,000 1,450 77,350 39,900 0,000 36,000 1,150 77,050 13/06/2017
BELLOSO LOPEZ, RUTH MARIA 40,200 0,150 36,000 1,000 77,350 40,200 0,150 36,000 1,000 77,350 13/06/2017
HERNANDEZ PEREZ, CARMEN 39,300 1,950 36,000 0,000 77,250 39,300 1,950 36,000 0,000 77,250 13/06/2017
GARCIA PEREZ, JUAN MANUEL 40,200 0,000 36,000 1,000 77,200 40,200 0,000 36,000 1,000 77,200 13/06/2017
LOBATON DORADO, CATALINA 39,900 0,000 36,000 1,300 77,200 39,900 0,000 36,000 1,300 77,200 13/06/2017
PIZARRO GONZALEZ, MARIA JESUS 35,400 6,750 35,000 0,000 77,150 35,400 4,800 35,000 0,000 75,200 13/06/2017
FERNÁNDEZ SÁNCHEZ, DANIEL 26,100 11,700 39,000 0,300 77,100 26,100 11,700 39,000 0,100 76,900 13/06/2017
ZAMANILLO BENAIXA, MARIA JOSÉ 41,100 0,000 36,000 0,000 77,100 41,100 0,000 34,500 0,000 75,600 13/06/2017
GARCIA SANCHEZ, MARIA DEL MAR 19,800 4,200 36,000 17,075 77,075 19,800 4,200 36,000 16,375 76,375 13/06/2017
MARTÍNEZ SALOMÓN, ANA 4,200 23,800 39,000 9,900 76,900 4,200 23,800 39,000 4,900 71,900 13/06/2017
NIETO PÉREZ, MARIA CONCEPCIÓN 2,100 42,600 30,000 2,200 76,900 2,100 42,600 30,000 1,725 76,425 13/06/2017
DELGADO JIMENEZ, ELENA 34,550 3,200 38,000 1,100 76,850 34,550 3,200 38,000 1,100 76,850 13/06/2017
GARCIA QUESADA, ANGELA MARIA 38,700 0,750 36,000 1,400 76,850 38,700 0,750 36,000 1,100 76,550 13/06/2017
ROMERO RAMÌREZ, LOURDES AURORA 3,900 31,500 39,000 2,450 76,850 3,900 31,500 39,000 2,300 76,700 13/06/2017
BORREGO PINO, PILAR 31,800 3,000 36,000 6,000 76,800 31,800 3,000 36,000 0,000 70,800 13/06/2017
CACERES CONTRERAS, MARIA DEL MAR 23,400 11,600 36,000 5,800 76,800 23,400 11,100 36,000 4,900 75,400 13/06/2017
CAMACHO GONZALEZ, EVA MARIA 19,500 21,300 36,000 0,000 76,800 19,500 21,300 36,000 0,000 76,800 13/06/2017
CARMONA DOMINGUEZ, ROCIO 32,400 8,400 36,000 0,000 76,800 32,400 8,400 36,000 0,000 76,800 13/06/2017
CEBALLOS CORDERO, ANÍBAL 31,200 9,600 36,000 0,000 76,800 31,200 9,600 34,900 0,000 75,700 13/06/2017
HANNA BEJARANO, MARIA 26,100 11,700 39,000 0,000 76,800 26,100 11,700 39,000 0,000 76,800 13/06/2017
MBO ASEME, RICARDO 6,600 40,200 30,000 0,000 76,800 6,600 33,000 26,500 0,000 66,100 13/06/2017
GALLO PAREJA, LETICIA 30,600 5,100 39,000 2,000 76,700 30,600 5,100 39,000 2,000 76,700 13/06/2017
PEREZ BAEZ, JOSE LUIS 12,000 26,700 36,000 2,000 76,700 12,000 26,400 36,000 1,000 75,400 13/06/2017
RODRÍGUEZ MONTES, MARIA JOSÉ 0,000 37,500 36,000 3,200 76,700 0,000 37,500 36,000 0,150 73,650 13/06/2017
BERLANGA MONTERO, ROSARIO 34,200 3,100 39,000 0,300 76,600 34,200 3,100 39,000 0,300 76,600 13/06/2017
CALVO GONZALEZ, SONIA MARIA 45,600 0,000 30,000 1,000 76,600 45,600 0,000 30,000 1,000 76,600 13/06/2017
GARCÍA RAYA, SONIA 0,000 37,500 39,000 0,100 76,600 0,000 37,200 39,000 0,000 76,200 13/06/2017
MATAS AGUILERA, FRANCISCA 0,000 46,500 30,000 0,100 76,600 0,000 42,300 22,950 0,000 65,250 13/06/2017
PECHE MERELO, JUAN JOSE 0,000 45,600 30,000 1,000 76,600 0,000 45,000 30,000 0,450 75,450 13/06/2017
GUTIERREZ GARRIDO, VANESA 33,300 2,600 39,000 1,600 76,500 33,300 2,300 39,000 1,300 75,900 13/06/2017
BOTIA PORTERO, ANTONIO 2,700 36,550 36,000 1,150 76,400 2,700 34,650 36,000 0,225 73,575 13/06/2017
MARTÍNEZ ORIHUELA, CARMEN 1,500 12,900 42,000 20,000 76,400 1,500 12,900 42,000 8,900 65,300 13/06/2017
MEDINA VALLE, LIDIA ANA 25,800 12,900 36,000 1,700 76,400 25,800 12,900 36,000 1,300 76,000 13/06/2017
HARILLO ACEVEDO, FRANCISCO DAVID 1,800 35,350 36,000 3,225 76,375 1,800 23,700 30,000 1,075 56,575 13/06/2017
NAVARRO LEAL, FÁTIMA 34,200 0,000 39,000 3,050 76,250 34,200 0,000 39,000 1,000 74,200 13/06/2017
FERNANDEZ CALVO, SILVIA 11,400 27,300 36,000 1,500 76,200 11,400 27,300 36,000 1,100 75,800 13/06/2017
ROMERO PEREZ, ANTONIA 38,700 0,200 36,000 1,200 76,100 38,700 0,000 36,000 0,000 74,700 13/06/2017
LOPEZ LIEBANAS, SARA GEMA 5,100 33,900 36,000 1,075 76,075 5,100 32,100 33,000 1,000 71,200 13/06/2017
RIOJA BENITEZ, MARIA ELENA 37,550 1,500 36,000 1,025 76,075 37,550 0,000 36,000 1,025 74,575 13/06/2017
FERNANDEZ ALVAREZ, FERNANDO 19,800 9,600 39,000 7,650 76,050 19,800 9,600 39,000 5,300 73,700 13/06/2017
GONZALEZ GUERRA, SILVANA 27,600 8,450 39,000 1,000 76,050 27,600 8,300 39,000 1,000 75,900 13/06/2017
CASTILLO COBO, ELVIRA 0,300 36,300 36,000 3,400 76,000 0,300 36,300 36,000 2,500 75,100 13/06/2017
GÓMEZ LÓPEZ, ELENA 0,000 32,400 36,000 7,600 76,000 0,000 32,400 36,000 1,800 70,200 13/06/2017
SEMPERE GRACIA, ARÁNZAZU 39,650 0,000 36,000 0,300 75,950 39,650 0,000 36,000 0,300 75,950 13/06/2017
CERVETTO MORENO, MARIA INMACULADA 2,100 40,800 33,000 0,000 75,900 2,100 26,100 30,000 0,000 58,200 13/06/2017
GONZALEZ FERNANDEZ, JOSEFA 23,100 19,800 32,000 1,000 75,900 23,100 15,900 30,000 1,000 70,000 13/06/2017
HERNANDEZ JIMENEZ, JUAN PEDRO 0,000 45,900 30,000 0,000 75,900 0,000 36,000 30,000 0,000 66,000 13/06/2017
MENDEZ RODRIGUEZ, CAROLINA 29,100 13,800 33,000 0,000 75,900 29,100 13,200 33,000 0,000 75,300 13/06/2017
BLANCO GONZALEZ, ANA MARIA 9,900 35,700 30,000 0,200 75,800 9,900 32,100 30,000 0,050 72,050 13/06/2017
INVERNÓN SÁNCHEZ, ANA BELÉN 32,100 0,300 36,000 7,400 75,800 32,100 0,300 36,000 5,500 73,900 13/06/2017
REQUENA FERNÁNDEZ, MANUEL ALEJANDRO 0,000 40,800 35,000 0,000 75,800 0,000 11,700 35,000 0,000 46,700 13/06/2017
VELAZQUEZ BLANDINO, MANUELA 37,800 0,000 36,000 2,000 75,800 37,800 0,000 36,000 1,850 75,650 13/06/2017
CARRETO RUIZ, CARMEN OLGA 48,300 4,600 22,850 0,000 75,750 48,300 2,400 22,850 0,000 73,550 13/06/2017
MUÑOZ LARA, CARMEN 24,300 15,450 36,000 0,000 75,750 24,300 15,450 36,000 0,000 75,750 13/06/2017
DIAZ CARRASCO, ENCARNACION 37,800 0,000 36,000 1,925 75,725 37,800 0,000 36,000 1,300 75,100 13/06/2017
GARCIA LIBRERO, CRISTINA 26,100 4,400 39,000 6,225 75,725 26,100 0,000 39,000 5,375 70,475 13/06/2017
LORCA JAIMEZ, MARIA ANGELES 36,300 1,850 36,000 1,550 75,700 36,300 1,850 36,000 1,250 75,400 13/06/2017
SOLVES ESPEJO, CINTA DEL ROCÍO 27,500 11,100 36,000 1,100 75,700 27,500 11,100 36,000 1,100 75,700 13/06/2017
GARCIA LOPEZ, MARTA 0,900 36,000 38,000 0,725 75,625 0,900 36,000 38,000 0,625 75,525 13/06/2017
CALERO MONROBÉ, JOSEFA 35,800 3,800 36,000 0,000 75,600 35,800 3,300 36,000 0,000 75,100 13/06/2017
CASTILLA GOMEZ, MARIA LUISA 39,600 0,000 36,000 0,000 75,600 39,600 0,000 36,000 0,000 75,600 13/06/2017
PAVÓN MORO, INMACULADA 39,600 0,000 36,000 0,000 75,600 39,600 0,000 36,000 0,000 75,600 13/06/2017
CHAVES VAZQUEZ, MARIA INMACULADA 3,300 33,900 38,000 0,350 75,550 3,300 33,700 35,000 0,000 72,000 13/06/2017
MORALES GUERRERO, Mª TERESA 1,200 41,300 33,000 0,000 75,500 1,200 28,800 33,000 0,000 63,000 13/06/2017
RODRIGUEZ PEREZ, ISABEL MARIA 35,100 2,400 36,000 2,000 75,500 35,100 2,400 36,000 2,000 75,500 13/06/2017
MAGDALENO CASTAÑO, MONTSERRAT 35,100 4,050 36,000 0,300 75,450 35,100 3,750 36,000 0,150 75,000 13/06/2017
MÍNGUEZ MARTÍNEZ, LAURA 1,500 33,600 39,000 1,350 75,450 1,500 33,600 39,000 1,350 75,450 13/06/2017
RUIZ GORDO, CELIA 0,000 35,400 39,000 1,025 75,425 0,000 35,400 39,000 1,000 75,400 13/06/2017
MILLÁN ATIENZA, MYRIAM 0,000 36,300 39,000 0,100 75,400 0,000 36,000 39,000 0,050 75,050 13/06/2017
PORTILLO SAMANIEGO, Mª ROSARIO 30,000 9,000 36,000 0,400 75,400 30,000 9,000 36,000 0,100 75,100 13/06/2017
PEREA ESPINOSA, FRANCISCO 0,000 39,300 36,000 0,075 75,375 0,000 35,700 33,000 0,075 68,775 13/06/2017
MENA MACIAS, MARIA DEL CARMEN 39,300 0,000 36,000 0,000 75,300 39,300 0,000 36,000 0,000 75,300 13/06/2017
SEBASTIAN LACAVE, MARIA JESUS 39,300 0,000 34,000 2,000 75,300 39,300 0,000 34,000 2,000 75,300 13/06/2017
FRENDE SACALUGA, TERESA 37,500 0,750 36,000 1,000 75,250 37,500 0,750 36,000 1,000 75,250 13/06/2017
PERAL MUÑOZ, SILVIA MARÍA 39,300 1,950 32,000 2,000 75,250 39,300 1,200 32,000 2,000 74,500 13/06/2017
REDRUELLO LAINEZ, ISABEL 22,200 13,050 39,000 1,000 75,250 22,200 6,900 36,000 1,000 66,100 13/06/2017
NADAL IBAÑEZ, ANA 28,200 5,800 39,000 2,225 75,225 28,200 5,800 39,000 1,900 74,900 13/06/2017
ADCERIAS CARRILLO DE ALBORNOZ, ENRIQUE 45,000 0,000 30,000 0,200 75,200 45,000 0,000 30,000 0,200 75,200 13/06/2017
BARQUÍN LANDE, MARÍA DEL PILAR 2,400 42,500 30,000 0,300 75,200 2,400 42,500 30,000 0,000 74,900 13/06/2017
PONCE DELGADO, SILVIA 35,100 3,300 36,000 0,800 75,200 35,100 3,300 36,000 0,600 75,000 13/06/2017
GARCÍA GONZÁLEZ, MARIA 31,200 5,900 36,000 2,000 75,100 31,200 4,700 36,000 2,000 73,900 13/06/2017
MARTINEZ GALIANO, JUAN MIGUEL 14,000 2,100 39,000 20,000 75,100 14,000 1,500 38,000 10,900 64,400 13/06/2017
SERRANO MORON, MILAGROS Mª 31,800 4,500 36,000 2,800 75,100 31,800 4,500 36,000 2,500 74,800 13/06/2017
GARCIA CONCEJERO, ANABEL 33,900 0,000 39,000 2,150 75,050 33,900 0,000 39,000 2,000 74,900 13/06/2017
ALGAR NEBRO, SUSANA 38,700 0,000 36,000 0,200 74,900 38,700 0,000 36,000 0,000 74,700 13/06/2017
MARTINEZ GOMEZ, MARIA ANGELES 36,900 0,000 36,000 2,000 74,900 36,900 0,000 36,000 2,000 74,900 13/06/2017
BURGOS MUÑOZ, PATRICIA 28,200 3,900 36,000 6,750 74,850 28,200 0,000 36,000 3,750 67,950 13/06/2017
FORNELL OJEDA, MANUELA 39,300 1,500 34,000 0,000 74,800 39,300 0,000 34,000 0,000 73,300 13/06/2017
MORENO MARTINEZ, ANTONIA 37,800 0,000 36,000 1,000 74,800 37,800 0,000 36,000 1,000 74,800 13/06/2017
RAMÍREZ SANTOS, SILVIA 25,200 11,450 36,000 2,100 74,750 25,200 11,450 36,000 2,000 74,650 13/06/2017
PÉREZ GARCÍA, NOELIA 36,300 5,400 33,000 0,000 74,700 36,300 5,400 33,000 0,000 74,700 13/06/2017
PRIETO SANCHEZ, RAFAEL 36,900 0,000 36,000 1,800 74,700 36,900 0,000 36,000 1,800 74,700 13/06/2017
ABAD AGUILAR, TERESA 25,200 4,500 36,000 8,950 74,650 25,200 4,500 36,000 3,300 69,000 13/06/2017
GARCIA AGUILAR, LORENA 0,000 36,900 30,000 7,700 74,600 0,000 36,900 30,000 4,500 71,400 13/06/2017
HERRERÍAS SALMERÓN, ESTEFANÍA 8,400 19,500 39,000 7,700 74,600 8,400 19,500 39,000 6,600 73,500 13/06/2017
IZQUIERDO VILCHEZ, ROCIO 12,000 12,000 36,000 14,550 74,550 12,000 12,000 36,000 12,750 72,750 13/06/2017
MEGINA NAVARRO, ANTONIA 40,500 0,050 34,000 0,000 74,550 40,500 0,000 34,000 0,000 74,500 13/06/2017
GAMEZ JIMENEZ, INMACULADA 39,300 5,200 30,000 0,000 74,500 39,300 5,200 30,000 0,000 74,500 13/06/2017
MARIN SEGURA, ROSARIO 28,200 9,300 36,000 1,000 74,500 28,200 9,300 34,000 1,000 72,500 13/06/2017
PERUJO RAMÍREZ, MARIA ISABEL 37,500 0,000 36,000 1,000 74,500 37,500 0,000 36,000 1,000 74,500 13/06/2017
MATTEI BONI, ANA MARIA 32,050 0,000 32,000 10,425 74,475 32,050 0,000 32,000 7,775 71,825 13/06/2017

* Los candidatos marcados con un asterisco no alcanzan la nota mínima exigida una vez baremados

- Al posicionarse sobre el número de página le aparecerá el rango de notas de autobaremo que contiene dicha página

[1]  [2]  [3]  [4]  [5]  [6]  [7]  [8]  [9]  [10]  [11]  [12]  [13] 


Color de candidatos/as que por autobaremo alcanzan puntuación mínima para formar parte de la bolsa Candidatos/as que por autobaremo alcanzan puntuación mínima para formar parte de la bolsa

Color de Candidatos/as que no alcanzan puntuación mínima para formar parte de la bolsa Candidatos/as que no alcanzan puntuación mínima para formar parte de la bolsa



[Volver]